Time;durP1;ratioP1;P1;durP2;ratioP2;P2;SDS_P1;SDS_P2;PMS_P1;PMS_P2;Temp;Humidity;BMP_temperature;BMP_pressure;BME280_temperature;BME280_humidity;BME280_pressure;Samples;Min_cycle;Max_cycle;Signal;HPM_P1;HPM_P2
2022/04/29 00:02:08;;;;;;;15.57;9.23;;;;;;;15.97;54.12;99394.94;5070844;28;20029;-49
2022/04/29 00:04:35;;;;;;;8.48;4.32;;;;;;;15.91;54.02;99395.81;5072146;28;20036;-50
2022/04/29 00:07:02;;;;;;;13.93;7.97;;;;;;;15.80;54.21;99388.59;5072111;28;20067;-49
2022/04/29 00:09:28;;;;;;;10.10;7.15;;;;;;;15.69;54.58;99398.81;5070706;28;20123;-50
2022/04/29 00:11:54;;;;;;;6.55;4.22;;;;;;;15.61;54.67;99400.94;5070666;28;20111;-49
2022/04/29 00:14:21;;;;;;;13.55;5.25;;;;;;;15.59;54.97;99387.91;5070712;28;20028;-48
2022/04/29 00:16:47;;;;;;;12.65;5.82;;;;;;;15.58;54.93;99400.31;5070665;28;20029;-50
2022/04/29 00:19:13;;;;;;;15.20;5.30;;;;;;;15.63;54.71;99401.53;5070643;28;20070;-50
2022/04/29 00:21:41;;;;;;;9.18;4.18;;;;;;;15.66;54.75;99395.81;5070625;28;20104;-50
2022/04/29 00:24:09;;;;;;;10.18;6.38;;;;;;;15.55;54.68;99390.19;5071856;28;20020;-50
2022/04/29 00:26:37;;;;;;;10.88;4.43;;;;;;;15.49;54.85;99388.41;5071849;28;20028;-49
2022/04/29 00:29:03;;;;;;;11.93;5.28;;;;;;;15.45;55.39;99386.38;5071561;28;20025;-50
2022/04/29 00:31:30;;;;;;;11.35;6.70;;;;;;;15.48;54.97;99385.97;5070424;28;20119;-49
2022/04/29 00:33:56;;;;;;;18.70;12.00;;;;;;;15.53;54.91;99386.13;5070504;28;20041;-50
2022/04/29 00:36:23;;;;;;;11.85;5.28;;;;;;;15.69;54.51;99385.56;5071745;28;20071;-49
2022/04/29 00:38:49;;;;;;;9.10;4.93;;;;;;;15.75;54.13;99379.47;5071760;28;20021;-49
2022/04/29 00:41:19;;;;;;;7.55;4.40;;;;;;;15.63;54.26;99381.16;5070354;28;20078;-50
2022/04/29 00:43:45;;;;;;;11.85;5.28;;;;;;;15.45;54.64;99378.44;5071716;28;20029;-50
2022/04/29 00:46:11;;;;;;;14.88;5.95;;;;;;;15.44;54.73;99382.94;5071710;28;20028;-51
2022/04/29 00:48:37;;;;;;;13.18;4.70;;;;;;;15.41;54.76;99378.06;5070320;28;20025;-50
2022/04/29 00:51:04;;;;;;;9.70;5.10;;;;;;;15.48;54.80;99375.38;5071525;28;20020;-50
2022/04/29 00:53:30;;;;;;;11.13;5.07;;;;;;;15.53;54.46;99372.88;5071660;28;20040;-49
2022/04/29 00:55:57;;;;;;;15.20;5.63;;;;;;;15.57;54.26;99376.72;5071551;28;20506;-50
2022/04/29 00:58:40;;;;;;;15.00;4.93;;;;;;;15.49;54.24;99375.19;5070267;28;20021;-50
2022/04/29 01:01:06;;;;;;;8.13;5.47;;;;;;;15.45;54.57;99384.53;5070218;28;20056;-50
2022/04/29 01:03:36;;;;;;;15.52;6.30;;;;;;;15.28;54.87;99372.88;5073276;28;20119;-49
2022/04/29 01:06:02;;;;;;;12.13;5.22;;;;;;;15.14;55.06;99374.81;5075526;28;20031;-50
2022/04/29 01:08:28;;;;;;;14.95;5.07;;;;;;;15.07;55.44;99379.31;5075514;28;20020;-50
2022/04/29 01:10:54;;;;;;;5.90;4.72;;;;;;;14.95;55.52;99384.44;5075393;28;20394;-48
2022/04/29 01:13:21;;;;;;;10.45;5.07;;;;;;;14.76;56.08;99378.25;5075399;28;20028;-50
2022/04/29 01:15:48;;;;;;;9.45;4.68;;;;;;;14.62;56.33;99380.13;5075400;28;20024;-49
2022/04/29 01:18:16;;;;;;;6.72;4.55;;;;;;;14.52;56.58;99380.53;5075314;28;20028;-50
2022/04/29 01:20:43;;;;;;;7.32;4.78;;;;;;;14.47;56.76;99379.56;5075259;28;20039;-50
2022/04/29 01:23:11;;;;;;;12.02;5.82;;;;;;;14.38;57.49;99376.31;5075206;28;20021;-50
2022/04/29 01:25:38;;;;;;;9.10;5.05;;;;;;;14.35;57.52;99372.28;5075161;28;20017;-50
2022/04/29 01:28:05;;;;;;;10.95;7.40;;;;;;;14.37;57.01;99380.00;5075088;28;20051;-50
2022/04/29 01:30:31;;;;;;;8.05;5.70;;;;;;;14.26;57.65;99373.50;5073463;28;20048;-49
2022/04/29 01:32:59;;;;;;;10.05;4.97;;;;;;;14.18;57.57;99374.56;5075001;28;20021;-50
2022/04/29 01:35:25;;;;;;;11.23;5.22;;;;;;;14.29;57.64;99374.94;5074978;28;20024;-50
2022/04/29 01:37:51;;;;;;;13.77;6.53;;;;;;;14.40;57.52;99376.94;5073643;28;20020;-50
2022/04/29 01:40:17;;;;;;;12.57;5.60;;;;;;;14.38;57.29;99377.13;5073571;28;20094;-49
2022/04/29 01:42:44;;;;;;;10.40;5.32;;;;;;;14.29;57.55;99375.75;5073540;28;20094;-50
2022/04/29 01:45:10;;;;;;;8.32;6.10;;;;;;;14.25;57.45;99371.09;5073460;28;20025;-50
2022/04/29 01:47:36;;;;;;;15.82;6.82;;;;;;;14.24;57.54;99374.75;5074761;28;20024;-49
2022/04/29 01:50:03;;;;;;;13.70;6.03;;;;;;;14.28;57.97;99373.31;5073443;28;20074;-50
2022/04/29 01:52:29;;;;;;;11.07;5.18;;;;;;;14.30;57.43;99372.06;5074677;28;20089;-50
2022/04/29 01:54:55;;;;;;;14.73;4.78;;;;;;;14.25;57.61;99379.03;5074640;28;20437;-49
2022/04/29 01:57:20;;;;;;;13.23;5.40;;;;;;;14.26;57.43;99373.50;5073324;28;20032;-50
2022/04/29 01:59:46;;;;;;;7.85;4.78;;;;;;;14.25;57.37;99387.75;5074542;28;20027;-49
2022/04/29 02:02:12;;;;;;;9.80;4.28;;;;;;;14.22;57.61;99382.06;5074476;28;20056;-49
2022/04/29 02:04:38;;;;;;;14.00;5.57;;;;;;;14.30;57.15;99371.28;5074484;28;20097;-50
2022/04/29 02:07:05;;;;;;;17.40;5.80;;;;;;;14.29;57.07;99381.03;5073106;28;20490;-49
2022/04/29 02:09:31;;;;;;;14.65;5.97;;;;;;;14.24;57.39;99372.91;5074383;28;20017;-49
2022/04/29 02:12:06;;;;;;;17.05;5.93;;;;;;;14.25;57.08;99376.38;5074214;28;20056;-50
2022/04/29 02:14:37;;;;;;;14.40;7.33;;;;;;;14.27;57.16;99377.78;5072233;28;20111;-50
2022/04/29 02:17:04;;;;;;;18.55;10.50;;;;;;;14.25;56.84;99376.38;5074277;28;20074;-49
2022/04/29 02:19:30;;;;;;;11.35;7.25;;;;;;;14.17;56.88;99380.84;5074206;28;20361;-49
2022/04/29 02:21:57;;;;;;;9.80;6.22;;;;;;;14.02;57.57;99379.47;5074090;28;20021;-50
2022/04/29 02:24:23;;;;;;;17.75;9.95;;;;;;;13.92;57.72;99378.06;5072786;28;20021;-49
2022/04/29 02:26:48;;;;;;;13.70;5.88;;;;;;;13.89;58.07;99375.81;5073990;28;20025;-50
2022/04/29 02:29:14;;;;;;;32.33;15.50;;;;;;;13.80;57.92;99371.75;5073725;28;20060;-51
2022/04/29 02:31:40;;;;;;;9.85;6.63;;;;;;;13.84;57.98;99377.44;5072648;28;20031;-50
2022/04/29 02:34:06;;;;;;;12.38;6.03;;;;;;;13.78;57.74;99377.25;5073862;28;20029;-50
2022/04/29 02:36:32;;;;;;;15.18;6.30;;;;;;;13.65;58.45;99379.91;5073859;28;20024;-50
2022/04/29 02:38:59;;;;;;;12.27;5.47;;;;;;;13.57;58.53;99367.72;5073844;28;20095;-50
2022/04/29 02:41:25;;;;;;;16.98;7.57;;;;;;;13.52;58.79;99369.31;5073814;28;20025;-50
2022/04/29 02:43:51;;;;;;;21.63;9.05;;;;;;;13.48;58.49;99370.75;5072430;28;20577;-50
2022/04/29 02:46:16;;;;;;;9.70;5.57;;;;;;;13.43;58.73;99375.84;5073728;28;20032;-50
2022/04/29 02:48:43;;;;;;;18.63;12.75;;;;;;;13.37;58.94;99365.06;5072348;28;20036;-49
2022/04/29 02:51:09;;;;;;;13.98;7.63;;;;;;;13.31;59.13;99371.16;5073457;28;20028;-49
2022/04/29 02:53:36;;;;;;;15.13;7.70;;;;;;;13.24;59.10;99362.41;5072239;28;20113;-50
2022/04/29 02:56:02;;;;;;;17.58;10.05;;;;;;;13.22;59.16;99369.69;5073481;28;20036;-50
2022/04/29 02:58:27;;;;;;;10.00;6.18;;;;;;;13.28;59.00;99368.06;5072173;28;20490;-49
2022/04/29 03:00:53;;;;;;;18.67;6.53;;;;;;;13.21;59.05;99364.63;5073333;28;20090;-48
2022/04/29 03:03:19;;;;;;;11.13;5.53;;;;;;;13.18;59.27;99371.13;5072091;28;20069;-49
2022/04/29 03:05:44;;;;;;;48.20;21.80;;;;;;;13.14;59.28;99375.16;5071907;28;20029;-49
2022/04/29 03:08:10;;;;;;;26.17;11.85;;;;;;;13.11;59.39;99368.44;5073275;28;20483;-49
2022/04/29 03:10:36;;;;;;;10.88;6.20;;;;;;;12.97;58.85;99372.88;5071776;28;20055;-49
2022/04/29 03:13:02;;;;;;;28.05;14.50;;;;;;;12.90;59.66;99379.16;5073124;28;20078;-49
2022/04/29 03:15:28;;;;;;;54.90;32.13;;;;;;;12.90;59.98;99379.97;5073136;28;20017;-49
2022/04/29 03:20:40;;;;;;;16.30;7.80;;;;;;;13.05;59.10;99377.16;5073289;28;20098;-50
2022/04/29 03:23:08;;;;;;;27.08;14.13;;;;;;;12.98;59.36;99377.13;5071585;28;20506;-49
2022/04/29 03:25:34;;;;;;;20.83;8.80;;;;;;;12.94;58.77;99381.19;5072941;28;20424;-50
2022/04/29 03:28:01;;;;;;;12.10;7.35;;;;;;;12.82;59.18;99384.56;5071580;28;20025;-50
2022/04/29 03:30:26;;;;;;;23.15;9.73;;;;;;;12.72;59.51;99392.88;5071135;28;20093;-50
2022/04/29 03:33:04;;;;;;;19.05;8.82;;;;;;;12.76;59.44;99399.38;5072777;28;20522;-50
2022/04/29 03:35:31;;;;;;;32.90;14.40;;;;;;;12.71;59.59;99396.50;5071412;28;20120;-49
2022/04/29 03:37:56;;;;;;;31.30;14.82;;;;;;;12.57;59.54;99393.78;5071342;28;20025;-49
2022/04/29 03:40:25;;;;;;;42.88;17.60;;;;;;;12.38;60.54;99397.97;5072558;28;20074;-49
2022/04/29 03:42:52;;;;;;;15.98;12.43;;;;;;;12.39;60.45;99394.34;5071198;28;20052;-50
2022/04/29 03:45:19;;;;;;;17.48;8.30;;;;;;;12.40;60.57;99403.03;5072535;28;20070;-48
2022/04/29 03:47:45;;;;;;;17.10;6.13;;;;;;;12.40;60.17;99405.66;5072427;28;20094;-49
2022/04/29 03:50:11;;;;;;;18.98;6.70;;;;;;;12.43;60.58;99399.19;5072403;28;20013;-49
2022/04/29 03:53:01;;;;;;;27.92;13.10;;;;;;;12.57;60.49;99408.78;5072290;28;20033;-49
2022/04/29 03:55:30;;;;;;;11.52;5.35;;;;;;;12.63;59.98;99405.38;5072372;28;20052;-49
2022/04/29 03:57:57;;;;;;;22.58;8.88;;;;;;;12.69;59.69;99406.41;5070918;28;20119;-49
2022/04/29 04:00:25;;;;;;;20.42;6.60;;;;;;;12.82;59.52;99406.47;5072303;28;20070;-49
2022/04/29 04:02:51;;;;;;;9.85;5.22;;;;;;;12.93;59.10;99405.88;5070880;28;20038;-49
2022/04/29 04:05:18;;;;;;;20.70;7.55;;;;;;;12.93;58.66;99408.53;5070849;28;20110;-50
2022/04/29 04:07:45;;;;;;;14.70;6.00;;;;;;;12.88;58.47;99407.50;5072130;28;20028;-50
2022/04/29 04:10:12;;;;;;;10.57;6.40;;;;;;;12.82;58.34;99413.53;5072128;28;20406;-50
2022/04/29 04:12:47;;;;;;;13.63;6.35;;;;;;;12.70;58.96;99406.22;5071994;28;20044;-50
2022/04/29 04:15:14;;;;;;;11.17;4.80;;;;;;;12.70;58.60;99408.06;5072116;28;20030;-48
2022/04/29 04:17:40;;;;;;;9.48;6.13;;;;;;;12.68;58.70;99413.50;5070683;28;20449;-49
2022/04/29 04:20:08;;;;;;;21.77;7.03;;;;;;;12.53;59.10;99412.81;5071923;28;20021;-50
2022/04/29 04:22:35;;;;;;;11.93;4.90;;;;;;;12.34;59.27;99423.03;5070596;28;20031;-50
2022/04/29 04:25:09;;;;;;;8.40;4.63;;;;;;;12.33;59.78;99423.22;5071839;28;20055;-49
2022/04/29 04:27:35;;;;;;;9.88;5.10;;;;;;;12.31;59.33;99425.25;5071947;28;20029;-50
2022/04/29 04:30:02;;;;;;;11.50;6.43;;;;;;;12.16;59.96;99428.81;5071663;28;20047;-50
2022/04/29 04:32:28;;;;;;;12.32;4.65;;;;;;;12.08;59.73;99438.66;5071773;28;20047;-48
2022/04/29 04:34:57;;;;;;;18.85;5.68;;;;;;;11.90;60.59;99433.88;5070486;28;20028;-49
2022/04/29 04:37:28;;;;;;;7.72;4.68;;;;;;;11.86;60.42;99441.28;5071492;28;20244;-50
2022/04/29 04:39:58;;;;;;;9.73;5.40;;;;;;;11.74;60.88;99440.19;5070446;28;20028;-49
2022/04/29 04:42:24;;;;;;;16.67;4.63;;;;;;;11.84;61.16;99434.59;5070476;28;20028;-49
2022/04/29 04:44:51;;;;;;;20.55;4.97;;;;;;;12.11;60.09;99431.22;5071772;28;20068;-49
2022/04/29 04:47:17;;;;;;;18.65;5.28;;;;;;;12.25;59.46;99439.97;5070372;28;20052;-50
2022/04/29 04:49:43;;;;;;;17.35;6.07;;;;;;;12.32;59.63;99434.78;5070325;28;20029;-49
2022/04/29 04:52:09;;;;;;;10.27;4.88;;;;;;;12.39;59.05;99443.50;5071536;28;20498;-49
2022/04/29 04:54:36;;;;;;;14.40;5.03;;;;;;;12.39;58.80;99448.78;5070297;28;20079;-50
2022/04/29 04:57:02;;;;;;;14.30;5.80;;;;;;;12.43;58.81;99451.84;5070279;28;20028;-49
2022/04/29 04:59:28;;;;;;;11.57;4.97;;;;;;;12.57;58.57;99456.19;5071565;28;20021;-48
2022/04/29 05:01:54;;;;;;;10.18;4.70;;;;;;;12.79;57.85;99451.63;5070213;28;20513;-49
2022/04/29 05:04:20;;;;;;;9.88;3.75;;;;;;;12.92;57.14;99453.53;5071565;28;20057;-50
2022/04/29 05:06:46;;;;;;;10.10;5.07;;;;;;;12.94;56.52;99456.78;5071453;28;20028;-49
2022/04/29 05:09:13;;;;;;;12.88;4.20;;;;;;;13.08;56.86;99454.97;5071472;28;20036;-49
2022/04/29 05:11:38;;;;;;;15.70;4.40;;;;;;;13.30;55.90;99453.88;5070037;28;20047;-49
2022/04/29 05:14:04;;;;;;;14.35;5.03;;;;;;;13.42;55.29;99461.19;5070149;28;20036;-49
2022/04/29 05:16:30;;;;;;;14.50;5.07;;;;;;;13.33;55.62;99464.03;5070092;28;20520;-50
2022/04/29 05:18:56;;;;;;;11.30;5.18;;;;;;;13.32;55.37;99459.78;5070358;28;20021;-50
2022/04/29 05:21:22;;;;;;;10.85;4.72;;;;;;;13.43;55.03;99463.66;5070027;28;20051;-49
2022/04/29 05:23:48;;;;;;;16.63;8.27;;;;;;;13.53;54.88;99469.34;5071272;28;20028;-49
2022/04/29 05:26:14;;;;;;;32.58;20.58;;;;;;;13.69;54.81;99473.44;5071539;28;20055;-50
2022/04/29 05:28:39;;;;;;;20.75;8.95;;;;;;;13.58;54.49;99471.38;5071295;28;20124;-50
2022/04/29 05:31:05;;;;;;;15.38;11.75;;;;;;;13.54;54.56;99485.97;5070941;28;20049;-48
2022/04/29 05:33:32;;;;;;;17.45;6.20;;;;;;;13.58;54.39;99479.28;5069909;28;20020;-50
2022/04/29 05:35:59;;;;;;;21.45;5.22;;;;;;;13.78;54.33;99482.78;5071186;28;20055;-49
2022/04/29 05:42:14;;;;;;;21.63;5.50;;;;;;;14.33;53.78;99479.13;5071190;28;20025;-49
2022/04/29 05:43:58;;;;;;;11.13;4.18;;;;;;;16.26;48.50;99483.50;5071178;28;20028;-49
2022/04/29 05:46:24;;;;;;;25.98;5.75;;;;;;;16.75;47.02;99481.78;5071106;28;20016;-49
2022/04/29 05:48:50;;;;;;;21.90;6.05;;;;;;;17.12;46.08;99478.31;5069829;28;20036;-49
2022/04/29 05:51:15;;;;;;;20.17;4.72;;;;;;;17.13;45.61;99482.59;5073650;28;20031;-50
2022/04/29 05:53:41;;;;;;;16.95;4.82;;;;;;;17.30;45.73;99485.44;5074648;28;20063;-51
2022/04/29 05:56:07;;;;;;;11.63;4.47;;;;;;;17.70;44.30;99485.69;5074611;28;20093;-49
2022/04/29 05:58:32;;;;;;;17.67;5.20;;;;;;;18.11;43.56;99491.22;5074524;28;20572;-50
2022/04/29 06:00:58;;;;;;;8.93;4.22;;;;;;;18.97;41.86;99480.88;5074543;28;20394;-51
2022/04/29 06:03:25;;;;;;;16.38;5.57;;;;;;;19.57;40.41;99487.59;5074497;28;20048;-49
2022/04/29 06:05:50;;;;;;;13.10;4.97;;;;;;;19.93;39.95;99494.38;5073098;28;20033;-50
2022/04/29 06:08:16;;;;;;;9.70;4.88;;;;;;;20.19;39.15;99500.09;5073103;28;20020;-50
2022/04/29 06:10:42;;;;;;;14.20;4.93;;;;;;;20.37;38.56;99499.03;5072986;28;20549;-50
2022/04/29 06:13:11;;;;;;;10.48;5.05;;;;;;;20.31;38.79;99505.34;5073018;28;20561;-50
2022/04/29 06:15:36;;;;;;;10.85;5.85;;;;;;;20.13;38.80;99501.88;5074221;28;20053;-50
2022/04/29 06:18:03;;;;;;;11.23;5.70;;;;;;;19.70;39.83;99505.94;5074238;28;20056;-50
2022/04/29 06:20:32;;;;;;;10.40;5.65;;;;;;;19.66;39.78;99509.31;5072929;28;20032;-49
2022/04/29 06:22:57;;;;;;;11.10;4.80;;;;;;;20.25;39.00;99507.13;5074203;28;20017;-49
2022/04/29 06:25:24;;;;;;;12.70;5.03;;;;;;;21.18;37.62;99509.19;5072788;28;20028;-50
2022/04/29 06:27:50;;;;;;;7.75;4.63;;;;;;;22.07;35.55;99505.25;5074106;28;20060;-49
2022/04/29 06:30:16;;;;;;;7.82;4.57;;;;;;;22.99;34.82;99504.19;5073833;28;20041;-50
2022/04/29 06:32:42;;;;;;;24.35;7.13;;;;;;;23.64;33.22;99502.81;5072576;28;20410;-50
2022/04/29 06:35:09;;;;;;;17.35;6.28;;;;;;;23.58;33.09;99503.84;5072670;28;20020;-50
2022/04/29 06:37:35;;;;;;;17.48;5.65;;;;;;;23.21;33.79;99507.50;5072623;28;20086;-50
2022/04/29 06:40:02;;;;;;;10.43;5.13;;;;;;;23.21;34.11;99496.81;5074136;28;20029;-51
2022/04/29 06:42:27;;;;;;;22.83;6.47;;;;;;;23.36;33.95;99501.38;5073849;28;20032;-51
2022/04/29 06:44:53;;;;;;;11.63;4.80;;;;;;;23.73;32.57;99498.50;5073864;28;20025;-49
2022/04/29 06:47:19;;;;;;;12.98;5.03;;;;;;;23.38;32.92;99501.94;5073797;28;20440;-50
2022/04/29 06:49:45;;;;;;;8.80;4.63;;;;;;;23.42;33.14;99494.16;5072379;28;20120;-50
2022/04/29 06:52:11;;;;;;;14.43;5.18;;;;;;;24.13;31.80;99493.44;5072253;28;20513;-50
2022/04/29 06:54:37;;;;;;;35.88;31.20;;;;;;;24.55;31.24;99494.19;5072278;28;20482;-50
2022/04/29 06:57:03;;;;;;;17.98;9.85;;;;;;;24.97;30.23;99498.34;5072191;28;20035;-50
2022/04/29 06:59:29;;;;;;;21.73;9.60;;;;;;;25.41;29.99;99484.16;5073481;28;20021;-50
2022/04/29 07:01:55;;;;;;;11.75;6.00;;;;;;;25.99;29.13;99492.34;5073125;28;20046;-50
2022/04/29 07:04:20;;;;;;;11.43;6.75;;;;;;;26.57;28.77;99482.63;5072058;28;20063;-50
2022/04/29 07:06:46;;;;;;;15.63;5.20;;;;;;;26.40;28.87;99488.47;5072014;28;20025;-51
2022/04/29 07:09:12;;;;;;;18.73;6.80;;;;;;;26.69;28.53;99485.75;5073254;28;20027;-50
2022/04/29 07:11:37;;;;;;;17.10;6.30;;;;;;;27.05;28.01;99483.41;5073113;28;20379;-51
2022/04/29 07:14:05;;;;;;;8.95;4.28;;;;;;;27.24;27.97;99478.06;5073233;28;20044;-51
2022/04/29 07:16:31;;;;;;;17.08;5.32;;;;;;;27.07;27.83;99480.44;5073130;28;20078;-51
2022/04/29 07:18:57;;;;;;;29.67;6.80;;;;;;;26.93;27.81;99483.03;5073061;28;20024;-50
2022/04/29 07:21:23;;;;;;;15.50;5.30;;;;;;;27.72;27.21;99473.56;5072963;28;20033;-51
2022/04/29 07:23:49;;;;;;;38.90;6.50;;;;;;;28.51;25.64;99472.75;5073013;28;20131;-51
2022/04/29 07:26:15;;;;;;;8.85;4.10;;;;;;;29.38;24.28;99466.34;5071561;28;20481;-50
2022/04/29 07:28:41;;;;;;;20.33;5.45;;;;;;;30.39;23.26;99474.16;5072867;28;20566;-51
2022/04/29 07:31:07;;;;;;;34.33;5.32;;;;;;;31.61;22.11;99464.31;5072598;28;20510;-50
2022/04/29 07:33:33;;;;;;;38.45;7.05;;;;;;;32.98;20.71;99461.66;5071492;28;20036;-51
2022/04/29 07:41:44;;;;;;;18.30;4.60;;;;;;;34.99;18.56;99461.09;5072625;28;20274;-49
2022/04/29 07:44:10;;;;;;;12.13;3.22;;;;;;;34.78;18.28;99465.91;5072603;28;20505;-51
2022/04/29 07:46:36;;;;;;;16.50;4.22;;;;;;;35.04;18.58;99467.47;5072473;28;20105;-52
2022/04/29 07:49:04;;;;;;;12.93;3.25;;;;;;;35.56;18.09;99455.69;5072488;28;20027;-51
2022/04/29 07:51:30;;;;;;;13.65;3.67;;;;;;;35.93;17.49;99456.28;5072216;28;20028;-51
2022/04/29 07:53:55;;;;;;;18.80;3.88;;;;;;;36.00;17.41;99442.81;5072393;28;20035;-50
2022/04/29 07:56:21;;;;;;;15.52;3.65;;;;;;;35.36;17.67;99450.06;5072296;28;20028;-51
2022/04/29 07:58:47;;;;;;;16.30;3.78;;;;;;;35.02;18.06;99456.88;5070996;28;20024;-51
2022/04/29 08:01:13;;;;;;;15.55;3.33;;;;;;;35.15;17.89;99455.72;5072167;28;20025;-51
2022/04/29 08:03:39;;;;;;;8.23;3.17;;;;;;;35.22;17.36;99454.34;5054305;28;20055;-51
2022/04/29 08:06:07;;;;;;;6.75;3.25;;;;;;;34.84;17.59;99456.34;5072085;28;20056;-51
2022/04/29 08:08:33;;;;;;;8.75;2.72;;;;;;;34.86;17.64;99454.06;5072042;28;20043;-52
2022/04/29 08:10:59;;;;;;;7.35;3.00;;;;;;;34.83;17.56;99454.75;5071944;28;20035;-51
2022/04/29 08:13:26;;;;;;;9.15;4.07;;;;;;;34.13;18.06;99452.13;5070100;28;20028;-50
2022/04/29 08:15:52;;;;;;;6.57;3.53;;;;;;;33.50;18.68;99455.81;5072032;28;20063;-50
2022/04/29 08:18:18;;;;;;;13.07;3.60;;;;;;;33.34;19.21;99452.13;5070815;28;20106;-52
2022/04/29 08:20:45;;;;;;;9.65;2.55;;;;;;;33.02;18.71;99449.00;5071884;28;20024;-51
2022/04/29 08:23:11;;;;;;;8.35;2.75;;;;;;;32.86;19.14;99448.00;5070613;28;20402;-50
2022/04/29 08:25:37;;;;;;;9.77;2.90;;;;;;;33.03;19.06;99440.50;5070738;28;20025;-52
2022/04/29 08:28:04;;;;;;;11.13;3.17;;;;;;;33.32;18.71;99447.00;5071825;28;20031;-51
2022/04/29 08:30:30;;;;;;;8.98;3.30;;;;;;;33.71;18.44;99438.69;5070198;28;20518;-52
2022/04/29 08:33:01;;;;;;;8.32;2.65;;;;;;;34.12;18.63;99442.38;5071780;28;20052;-52
2022/04/29 08:35:28;;;;;;;11.18;2.78;;;;;;;34.09;18.14;99438.41;5070710;28;20067;-49
2022/04/29 08:37:57;;;;;;;9.30;3.17;;;;;;;34.25;17.35;99441.28;5070480;28;20082;-51
2022/04/29 08:40:24;;;;;;;11.30;3.85;;;;;;;34.27;17.54;99432.75;5071725;28;20070;-51
2022/04/29 08:42:50;;;;;;;18.30;3.22;;;;;;;34.58;17.32;99432.97;5070589;28;20029;-51
2022/04/29 08:45:21;;;;;;;14.95;4.60;;;;;;;35.12;16.82;99431.06;5070374;28;20039;-51
2022/04/29 08:47:47;;;;;;;12.90;3.88;;;;;;;35.22;16.62;99430.59;5071682;28;20021;-52
2022/04/29 08:50:18;;;;;;;14.73;3.95;;;;;;;35.11;17.13;99432.19;5071592;28;20032;-51
2022/04/29 08:52:45;;;;;;;10.65;3.60;;;;;;;34.56;17.52;99440.69;5071551;28;20021;-51
2022/04/29 09:00:42;;;;;;;10.77;3.80;;;;;;;33.80;17.75;99431.22;5071875;28;20576;-51
2022/04/29 09:03:29;;;;;;;10.85;4.20;;;;;;;33.76;18.02;99425.63;5071798;28;20799;-51
2022/04/29 09:05:54;;;;;;;11.15;4.35;;;;;;;33.53;18.67;99430.66;5071471;28;20078;-51
2022/04/29 09:08:22;;;;;;;8.90;3.72;;;;;;;33.08;19.25;99420.47;5071466;28;20021;-52
2022/04/29 09:10:59;;;;;;;14.55;4.22;;;;;;;32.99;19.36;99425.19;5071297;28;20024;-51
2022/04/29 09:13:30;;;;;;;16.27;4.72;;;;;;;32.79;19.78;99421.34;5071490;28;20075;-51
2022/04/29 09:15:59;;;;;;;6.00;3.88;;;;;;;32.58;20.11;99424.06;5070072;28;20064;-51
2022/04/29 09:18:45;;;;;;;13.85;5.07;;;;;;;31.77;20.62;99431.19;5071404;28;20498;-52
2022/04/29 09:21:12;;;;;;;31.50;5.32;;;;;;;31.52;21.21;99433.66;5070135;28;20029;-51
2022/04/29 09:23:47;;;;;;;11.63;3.95;;;;;;;32.06;20.78;99421.56;5071568;28;20017;-51
2022/04/29 09:26:42;;;;;;;19.30;5.20;;;;;;;32.06;20.79;99422.38;5075172;28;20020;-50
2022/04/29 09:29:11;;;;;;;;;;;;;;;32.13;20.82;99421.84;5074672;28;20036;-51
2022/04/29 09:31:59;;;;;;;8.75;4.00;;;;;;;32.56;20.09;99416.22;5074964;28;19999;-50
2022/04/29 09:34:43;;;;;;;16.55;3.55;;;;;;;33.38;19.29;99418.50;5075351;28;20032;-51
2022/04/29 09:37:14;;;;;;;21.55;3.33;;;;;;;33.82;18.17;99409.88;5073709;28;20494;-50
2022/04/29 09:40:04;;;;;;;12.57;3.00;;;;;;;33.86;17.90;99413.50;5073660;28;20032;-50
2022/04/29 09:42:44;;;;;;;16.25;3.70;;;;;;;33.73;17.63;99407.25;5074945;28;20028;-51
2022/04/29 09:45:22;;;;;;;45.45;4.80;;;;;;;33.68;17.97;99415.63;5074833;28;20115;-50
2022/04/29 09:47:54;;;;;;;10.38;3.20;;;;;;;33.51;18.23;99415.81;5074862;28;20025;-51
2022/04/29 09:50:20;;;;;;;11.27;4.05;;;;;;;33.18;18.55;99414.69;5073514;28;20162;-50
2022/04/29 09:52:45;;;;;;;12.85;3.10;;;;;;;32.78;18.59;99415.13;5074675;28;20020;-52
2022/04/29 09:55:19;;;;;;;8.48;3.40;;;;;;;32.08;19.23;99419.34;5074904;28;20398;-51
2022/04/29 09:57:52;;;;;;;8.75;2.60;;;;;;;31.74;20.16;99421.78;5073368;28;20179;-51
2022/04/29 10:00:19;;;;;;;8.00;2.80;;;;;;;31.37;20.95;99417.84;5073207;28;20032;-52
2022/04/29 10:02:48;;;;;;;9.32;3.47;;;;;;;30.88;21.47;99419.91;5074554;28;20017;-51
2022/04/29 10:05:14;;;;;;;19.63;3.60;;;;;;;30.65;22.19;99418.13;5073279;28;20024;-52
2022/04/29 10:07:41;;;;;;;16.63;4.15;;;;;;;30.48;22.56;99420.78;5074434;28;20056;-50
2022/04/29 10:10:12;;;;;;;11.63;3.45;;;;;;;30.51;22.76;99413.97;5074382;28;20031;-51
2022/04/29 10:12:37;;;;;;;12.98;4.00;;;;;;;30.54;22.57;99416.03;5074258;28;20035;-50
2022/04/29 10:15:09;;;;;;;9.93;3.80;;;;;;;30.65;22.56;99414.63;5074243;28;20108;-51
2022/04/29 10:23:12;;;;;;;16.52;4.30;;;;;;;31.24;21.73;99422.31;5073420;28;20035;-49
2022/04/29 10:25:44;;;;;;;12.25;4.32;;;;;;;31.68;21.46;99406.03;5072836;28;20029;-51
2022/04/29 10:28:15;;;;;;;8.82;4.03;;;;;;;32.18;20.84;99408.09;5074397;28;20020;-51
2022/04/29 10:30:41;;;;;;;13.40;3.40;;;;;;;32.40;20.69;99415.97;5073716;28;20506;-51
2022/04/29 10:33:12;;;;;;;10.50;3.55;;;;;;;32.59;20.79;99406.59;5072701;28;20029;-52
2022/04/29 10:35:45;;;;;;;13.27;4.57;;;;;;;33.21;19.75;99413.22;5071987;28;20123;-51
2022/04/29 10:38:22;;;;;;;7.03;3.55;;;;;;;34.03;19.20;99407.88;5073841;28;20039;-52
2022/04/29 10:41:13;;;;;;;13.10;4.05;;;;;;;34.71;18.56;99400.25;5073922;28;20028;-51
2022/04/29 10:44:01;;;;;;;13.63;4.28;;;;;;;35.31;17.50;99386.75;5072597;28;20033;-52
2022/04/29 10:46:35;;;;;;;5.50;3.10;;;;;;;35.62;17.01;99388.75;5073537;28;20028;-51
2022/04/29 10:49:22;;;;;;;14.60;2.97;;;;;;;36.24;16.65;99388.31;5073705;28;20029;-51
2022/04/29 10:51:50;;;;;;;11.52;3.00;;;;;;;36.47;16.19;99380.25;5072238;28;20028;-51
2022/04/29 10:54:42;;;;;;;8.20;2.65;;;;;;;36.78;15.91;99382.09;5073505;28;20031;-52
2022/04/29 10:57:12;;;;;;;5.25;2.30;;;;;;;37.09;15.59;99381.16;5073499;28;20056;-51
2022/04/29 11:00:12;;;;;;;8.50;2.25;;;;;;;37.54;15.12;99370.66;5072281;28;20615;-52
2022/04/29 11:02:37;;;;;;;7.82;2.53;;;;;;;37.78;14.87;99375.00;5071949;28;20074;-52
2022/04/29 11:05:04;;;;;;;8.48;2.85;;;;;;;38.16;14.55;99376.78;5072014;28;20506;-52
2022/04/29 11:07:45;;;;;;;9.07;2.78;;;;;;;38.36;15.46;99371.97;5073362;28;20096;-51
2022/04/29 11:10:21;;;;;;;17.33;3.42;;;;;;;38.58;15.26;99366.00;5073266;28;20024;-51
2022/04/29 11:12:58;;;;;;;5.63;2.67;;;;;;;38.60;14.86;99369.97;5073439;28;20038;-51
2022/04/29 11:15:40;;;;;;;6.38;2.55;;;;;;;39.03;14.79;99354.03;5073049;28;20672;-52
2022/04/29 11:18:22;;;;;;;8.95;5.13;;;;;;;38.89;15.07;99365.59;5073171;28;20516;-51
2022/04/29 11:20:52;;;;;;;24.67;5.20;;;;;;;38.55;15.20;99360.09;5071837;28;20507;-50
2022/04/29 11:26:14;;;;;;;11.23;3.45;;;;;;;37.71;15.99;99363.91;5073033;28;20031;-52
2022/04/29 11:28:40;;;;;;;8.05;3.25;;;;;;;37.43;16.42;99364.19;5072819;28;20032;-52
2022/04/29 11:31:08;;;;;;;7.65;3.33;;;;;;;37.24;16.49;99359.56;5071245;28;20040;-51
2022/04/29 11:33:34;;;;;;;12.10;3.60;;;;;;;36.69;16.83;99345.97;5072746;28;20029;-52
2022/04/29 11:36:05;;;;;;;11.68;3.20;;;;;;;36.34;17.09;99346.75;5071529;28;20021;-52
2022/04/29 11:38:40;;;;;;;15.68;4.85;;;;;;;36.02;17.39;99343.28;5071941;28;20441;-51
2022/04/29 11:41:05;;;;;;;16.73;3.33;;;;;;;35.79;17.27;99347.44;5072644;28;20054;-51
2022/04/29 11:43:31;;;;;;;29.17;4.68;;;;;;;35.34;17.82;99337.72;5072631;28;20024;-51
2022/04/29 11:46:07;;;;;;;61.97;6.78;;;;;;;35.12;18.07;99335.56;5072566;28;20013;-52
2022/04/29 11:48:34;;;;;;;12.13;3.55;;;;;;;34.55;18.94;99329.25;5071573;28;20020;-51
2022/04/29 11:51:00;;;;;;;9.35;3.70;;;;;;;34.00;18.93;99339.66;5072313;28;20028;-51
2022/04/29 11:53:27;;;;;;;15.55;2.78;;;;;;;33.74;18.92;99340.78;5072434;28;20016;-51
2022/04/29 11:55:53;;;;;;;16.55;3.35;;;;;;;33.47;18.17;99342.19;5071065;28;20024;-50
2022/04/29 11:58:19;;;;;;;6.30;4.82;;;;;;;33.06;18.05;99332.97;5072387;28;20017;-51